Time;durP1;ratioP1;P1;durP2;ratioP2;P2;SDS_P1;SDS_P2;PMS_P1;PMS_P2;Temp;Humidity;BMP_temperature;BMP_pressure;BME280_temperature;BME280_humidity;BME280_pressure;Samples;Min_cycle;Max_cycle;Signal;HPM_P1;HPM_P2
2023/06/29 00:01:13;;;;;;;;;;;;;;;16.63;50.68;96445.88;6222030;28;20379;-69
2023/06/29 00:04:20;;;;;;;;;;;;;;;16.53;50.63;96456.56;6221808;28;19921;-68
2023/06/29 00:07:25;;;;;;;;;;;;;;;16.45;50.76;96464.41;6220456;28;19925;-68
2023/06/29 00:10:26;;;;;;;;;;;;;;;16.40;50.52;96469.31;6220237;28;19958;-69
2023/06/29 00:13:29;;;;;;;;;;;;;;;16.39;50.33;96462.34;6221204;28;19921;-68
2023/06/29 00:16:31;;;;;;;;;;;;;;;16.46;50.54;96465.25;6220616;28;20008;-68
2023/06/29 00:19:36;;;;;;;;;;;;;;;16.52;50.48;96468.13;6221759;28;19925;-69
2023/06/29 00:22:40;;;;;;;;;;;;;;;16.57;50.20;96465.88;6220934;28;20310;-68
2023/06/29 00:25:41;;;;;;;;;;;;;;;16.57;50.35;96475.69;6203692;28;19921;-69
2023/06/29 00:28:45;;;;;;;;;;;;;;;16.54;50.25;96471.50;6221107;28;20016;-68
2023/06/29 00:31:46;;;;;;;;;;;;;;;16.50;50.01;96472.78;6221180;28;20394;-68
2023/06/29 00:34:47;;;;;;;;;;;;;;;16.56;49.80;96473.97;6221060;28;19964;-69
2023/06/29 00:37:53;;;;;;;;;;;;;;;16.60;49.77;96476.22;6221140;28;19984;-69
2023/06/29 00:40:55;;;;;;;;;;;;;;;16.66;49.63;96473.97;6220230;28;19968;-68
2023/06/29 00:43:56;;;;;;;;;;;;;;;16.73;49.48;96477.69;6220819;28;19968;-69
2023/06/29 00:46:59;;;;;;;;;;;;;;;16.75;49.55;96473.91;6220326;28;19921;-69
2023/06/29 00:50:01;;;;;;;;;;;;;;;16.81;49.17;96480.47;6224666;28;20306;-68
2023/06/29 00:53:04;;;;;;;;;;;;;;;16.95;49.57;96479.97;6228727;28;19921;-69
2023/06/29 00:56:07;;;;;;;;;;;;;;;16.82;49.56;96484.81;6228952;28;19922;-70
2023/06/29 00:59:09;;;;;;;;;;;;;;;16.81;49.44;96477.81;6211147;28;19937;-70
2023/06/29 01:02:10;;;;;;;;;;;;;;;16.83;49.46;96474.03;6228720;28;19968;-68
2023/06/29 01:05:12;;;;;;;;;;;;;;;16.81;49.59;96473.38;6228833;28;19921;-68
2023/06/29 01:08:18;;;;;;;;;;;;;;;16.78;49.60;96473.63;6228770;28;20310;-68
2023/06/29 01:11:20;;;;;;;;;;;;;;;16.85;49.67;96479.22;6228955;28;19925;-70
2023/06/29 01:14:24;;;;;;;;;;;;;;;16.82;49.70;96479.50;6228665;28;19921;-69
2023/06/29 01:17:27;;;;;;;;;;;;;;;16.89;49.60;96477.09;6228485;28;19921;-68
2023/06/29 01:20:31;;;;;;;;;;;;;;;16.96;49.28;96481.66;6228808;28;19921;-69
2023/06/29 01:23:36;;;;;;;;;;;;;;;16.91;49.63;96483.94;6228160;28;19921;-69
2023/06/29 01:26:39;;;;;;;;;;;;;;;17.05;49.41;96475.44;6227706;28;19921;-69
2023/06/29 01:29:40;;;;;;;;;;;;;;;17.03;49.22;96482.72;6227820;28;19921;-69
2023/06/29 01:32:41;;;;;;;;;;;;;;;17.10;49.19;96484.78;6228205;28;20386;-70
2023/06/29 01:35:45;;;;;;;;;;;;;;;17.14;49.21;96484.34;6228242;28;19928;-69
2023/06/29 01:38:55;;;;;;;;;;;;;;;17.14;49.17;96472.88;6228462;28;19921;-69
2023/06/29 01:41:58;;;;;;;;;;;;;;;17.24;48.99;96481.66;6227895;28;20383;-68
2023/06/29 01:45:03;;;;;;;;;;;;;;;17.33;48.84;96478.06;6228364;28;19921;-68
2023/06/29 01:48:14;;;;;;;;;;;;;;;17.47;48.39;96485.53;6228243;28;19921;-69
2023/06/29 01:51:18;;;;;;;;;;;;;;;17.47;48.74;96490.84;6228085;28;19921;-69
2023/06/29 01:54:21;;;;;;;;;;;;;;;17.59;48.31;96491.44;6228432;28;19921;-69
2023/06/29 01:57:23;;;;;;;;;;;;;;;17.65;48.67;96492.66;6227642;28;19928;-69
2023/06/29 02:00:24;;;;;;;;;;;;;;;17.71;48.28;96487.56;6226440;28;19932;-70
2023/06/29 02:03:25;;;;;;;;;;;;;;;17.93;48.36;96496.09;6223391;28;19921;-69
2023/06/29 02:06:26;;;;;;;;;;;;;;;18.06;47.81;96495.69;6224240;28;19925;-69
2023/06/29 02:09:27;;;;;;;;;;;;;;;18.38;47.87;96495.91;6223452;28;20019;-69
2023/06/29 02:12:29;;;;;;;;;;;;;;;18.56;47.31;96503.00;6224110;28;20052;-69
2023/06/29 02:15:32;;;;;;;;;;;;;;;18.82;47.07;96505.66;6222855;28;19921;-69
2023/06/29 02:18:36;;;;;;;;;;;;;;;18.93;47.25;96501.88;6222970;28;19921;-68
2023/06/29 02:21:45;;;;;;;;;;;;;;;19.00;47.03;96505.59;6224137;28;20020;-68
2023/06/29 02:24:48;;;;;;;;;;;;;;;19.07;47.41;96501.25;6223015;28;19921;-69
2023/06/29 02:27:52;;;;;;;;;;;;;;;19.22;47.78;96506.81;6223252;28;19925;-69
2023/06/29 02:30:58;;;;;;;;;;;;;;;19.34;47.60;96494.84;6223487;28;19921;-70
2023/06/29 02:34:02;;;;;;;;;;;;;;;19.47;47.33;96508.53;6223381;28;20397;-69
2023/06/29 02:37:04;;;;;;;;;;;;;;;19.63;47.11;96507.72;6222723;28;19921;-69
2023/06/29 02:40:06;;;;;;;;;;;;;;;19.82;46.85;96514.63;6222462;28;20422;-69
2023/06/29 02:43:07;;;;;;;;;;;;;;;19.92;46.66;96506.44;6223266;28;19921;-69
2023/06/29 02:46:10;;;;;;;;;;;;;;;20.03;46.69;96511.47;6223130;28;20020;-69
2023/06/29 02:49:15;;;;;;;;;;;;;;;19.98;46.69;96511.13;6223154;28;19921;-69
2023/06/29 02:52:18;;;;;;;;;;;;;;;19.96;46.99;96513.16;6222502;28;19921;-69
2023/06/29 02:55:23;;;;;;;;;;;;;;;19.91;47.09;96512.81;6222795;28;19928;-68
2023/06/29 02:58:26;;;;;;;;;;;;;;;20.00;47.01;96514.47;6222085;28;20143;-69
2023/06/29 03:01:31;;;;;;;;;;;;;;;20.05;46.79;96522.81;6223009;28;19921;-69
2023/06/29 03:04:34;;;;;;;;;;;;;;;20.25;46.24;96527.81;6222150;28;20402;-69
2023/06/29 03:07:35;;;;;;;;;;;;;;;20.37;45.82;96529.13;6221670;28;20315;-70
2023/06/29 03:10:38;;;;;;;;;;;;;;;20.44;45.48;96527.47;6221747;28;19922;-70
2023/06/29 03:13:41;;;;;;;;;;;;;;;20.55;45.27;96532.50;6222076;28;19926;-69
2023/06/29 03:16:47;;;;;;;;;;;;;;;20.73;44.93;96537.63;6222634;28;19921;-70
2023/06/29 03:19:54;;;;;;;;;;;;;;;21.04;44.46;96535.00;6222381;28;19956;-70
2023/06/29 03:22:58;;;;;;;;;;;;;;;21.34;44.16;96534.38;6222444;28;20399;-69
2023/06/29 03:26:04;;;;;;;;;;;;;;;21.53;43.67;96540.16;6222348;28;20024;-70
2023/06/29 03:29:07;;;;;;;;;;;;;;;21.64;43.58;96540.78;6222060;28;19921;-69
2023/06/29 03:32:09;;;;;;;;;;;;;;;21.80;43.14;96534.47;6221889;28;19921;-70
2023/06/29 03:35:11;;;;;;;;;;;;;;;22.01;42.79;96531.16;6220636;28;20012;-69
2023/06/29 03:38:17;;;;;;;;;;;;;;;22.21;42.19;96536.88;6222029;28;19925;-69
2023/06/29 03:41:25;;;;;;;;;;;;;;;22.33;42.07;96530.88;6221997;28;19921;-70
2023/06/29 03:44:26;;;;;;;;;;;;;;;22.51;41.42;96532.44;6221560;28;19921;-69
2023/06/29 03:47:30;;;;;;;;;;;;;;;22.61;41.45;96532.97;6221877;28;19925;-69
2023/06/29 03:50:31;;;;;;;;;;;;;;;22.76;41.03;96544.56;6221387;28;20080;-69
2023/06/29 03:53:36;;;;;;;;;;;;;;;22.79;40.45;96540.69;6221875;28;19928;-70
2023/06/29 03:56:38;;;;;;;;;;;;;;;22.83;40.30;96542.81;6221717;28;20398;-69
2023/06/29 03:59:41;;;;;;;;;;;;;;;22.91;39.55;96543.75;6220865;28;19921;-70
2023/06/29 04:02:43;;;;;;;;;;;;;;;22.96;39.61;96552.13;6239165;28;19920;-70
2023/06/29 04:05:47;;;;;;;;;;;;;;;23.01;39.42;96549.69;6243448;28;19928;-69
2023/06/29 04:08:48;;;;;;;;;;;;;;;22.97;39.13;96545.72;6244769;28;20374;-69
2023/06/29 04:12:00;;;;;;;;;;;;;;;22.88;39.27;96544.94;6245929;28;20023;-70
2023/06/29 04:15:03;;;;;;;;;;;;;;;22.77;39.43;96553.44;6245656;28;20426;-70
2023/06/29 04:18:05;;;;;;;;;;;;;;;22.80;39.05;96559.28;6245178;28;20015;-70
2023/06/29 04:21:08;;;;;;;;;;;;;;;22.81;39.59;96555.56;6245381;28;20391;-69
2023/06/29 04:24:09;;;;;;;;;;;;;;;22.69;40.04;96562.41;6244485;28;20006;-70
2023/06/29 04:27:14;;;;;;;;;;;;;;;22.74;40.03;96560.00;6245270;28;20014;-69
2023/06/29 04:30:17;;;;;;;;;;;;;;;22.81;39.94;96565.47;6244955;28;20294;-69
2023/06/29 04:33:21;;;;;;;;;;;;;;;22.95;39.71;96561.13;6245093;28;19921;-70
2023/06/29 04:36:28;;;;;;;;;;;;;;;23.08;39.47;96562.19;6245201;28;19975;-69
2023/06/29 04:39:31;;;;;;;;;;;;;;;23.21;39.40;96566.91;6245111;28;19920;-69
2023/06/29 04:42:43;;;;;;;;;;;;;;;23.38;39.14;96566.69;6245155;28;20019;-70
2023/06/29 04:45:47;;;;;;;;;;;;;;;23.54;38.68;96564.63;6245377;28;20561;-71
2023/06/29 04:48:54;;;;;;;;;;;;;;;24.25;37.31;96566.63;6227299;28;19921;-70
2023/06/29 04:51:58;;;;;;;;;;;;;;;26.76;33.79;96568.03;6244273;28;19920;-69
2023/06/29 04:54:59;;;;;;;;;;;;;;;29.48;30.21;96581.88;6244744;28;19932;-69
2023/06/29 04:58:10;;;;;;;;;;;;;;;32.12;28.13;96582.41;6245142;28;20100;-70
2023/06/29 05:01:12;;;;;;;;;;;;;;;34.73;25.92;96580.63;6244263;28;19928;-69
2023/06/29 05:04:13;;;;;;;;;;;;;;;37.53;24.34;96590.03;6244113;28;20382;-70
2023/06/29 05:07:14;;;;;;;;;;;;;;;40.23;21.93;96585.47;6244282;28;20403;-70
2023/06/29 05:10:17;;;;;;;;;;;;;;;42.21;19.59;96594.19;6244402;28;19921;-70
2023/06/29 05:13:20;;;;;;;;;;;;;;;43.22;19.27;96587.38;6226664;28;19964;-70
2023/06/29 05:16:25;;;;;;;;;;;;;;;44.73;16.17;96583.56;6244816;28;19921;-70
2023/06/29 05:19:27;;;;;;;;;;;;;;;46.40;14.68;96585.50;6244083;28;20424;-70
2023/06/29 05:22:31;;;;;;;;;;;;;;;47.40;12.47;96583.63;6244011;28;19974;-70
2023/06/29 05:25:36;;;;;;;;;;;;;;;47.96;11.77;96589.50;6244816;28;19925;-70
2023/06/29 05:28:40;;;;;;;;;;;;;;;48.12;12.01;96572.84;6244768;28;19924;-70
2023/06/29 05:31:41;;;;;;;;;;;;;;;48.97;11.45;96583.03;6243618;28;19921;-70
2023/06/29 05:34:47;;;;;;;;;;;;;;;49.60;9.79;96581.53;6244184;28;19921;-70
2023/06/29 05:37:50;;;;;;;;;;;;;;;50.28;10.12;96572.84;6247547;28;20034;-70
2023/06/29 05:40:54;;;;;;;;;;;;;;;51.61;9.57;96576.28;6248641;28;19958;-70
2023/06/29 05:43:56;;;;;;;;;;;;;;;51.72;8.76;96570.88;6248626;28;20401;-69
2023/06/29 05:47:02;;;;;;;;;;;;;;;51.12;8.91;96571.38;6248782;28;21247;-70
2023/06/29 05:50:07;;;;;;;;;;;;;;;48.84;9.34;96561.91;6249237;28;19987;-69
2023/06/29 05:53:09;;;;;;;;;;;;;;;46.13;10.41;96559.81;6249197;28;19921;-72
2023/06/29 05:56:13;;;;;;;;;;;;;;;42.45;12.88;96543.34;6231310;28;20382;-72
2023/06/29 05:59:18;;;;;;;;;;;;;;;42.32;12.69;96537.50;6244427;28;19936;-71
2023/06/29 06:02:20;;;;;;;;;;;;;;;39.86;14.10;96531.94;6247243;28;20499;-69
2023/06/29 06:05:21;;;;;;;;;;;;;;;36.70;15.84;96525.41;6247974;28;20023;-70
2023/06/29 06:08:24;;;;;;;;;;;;;;;34.52;17.81;96518.66;6248384;28;19921;-71
2023/06/29 06:11:26;;;;;;;;;;;;;;;34.99;17.57;96512.47;6248296;28;20401;-69
2023/06/29 06:14:30;;;;;;;;;;;;;;;39.48;14.70;96521.63;6248245;28;20012;-71
2023/06/29 06:17:33;;;;;;;;;;;;;;;44.21;11.95;96541.94;6248027;28;19917;-70
2023/06/29 06:20:38;;;;;;;;;;;;;;;46.60;10.33;96537.38;6248168;28;19951;-70
2023/06/29 06:23:42;;;;;;;;;;;;;;;46.54;11.19;96541.50;6247849;28;20011;-72
2023/06/29 06:26:44;;;;;;;;;;;;;;;46.70;10.66;96548.09;6248049;28;19924;-70
2023/06/29 06:29:48;;;;;;;;;;;;;;;44.61;12.02;96534.28;6247900;28;20008;-70
2023/06/29 06:32:53;;;;;;;;;;;;;;;44.11;12.29;96532.81;6247678;28;20476;-71
2023/06/29 06:35:57;;;;;;;;;;;;;;;43.82;12.63;96518.69;6247574;28;20421;-72
2023/06/29 06:39:02;;;;;;;;;;;;;;;46.64;11.14;96534.72;6230860;28;19929;-70
2023/06/29 06:42:07;;;;;;;;;;;;;;;48.13;9.39;96524.28;6247587;28;19927;-70
2023/06/29 06:45:11;;;;;;;;;;;;;;;49.93;9.69;96541.97;6247398;28;19921;-71
2023/06/29 06:48:15;;;;;;;;;;;;;;;51.76;8.99;96540.09;6247010;28;19967;-69
2023/06/29 06:51:19;;;;;;;;;;;;;;;49.99;9.48;96531.34;6247455;28;19928;-70
2023/06/29 06:54:22;;;;;;;;;;;;;;;47.00;9.78;96520.13;6247678;28;19921;-70
2023/06/29 06:57:26;;;;;;;;;;;;;;;44.97;11.26;96520.06;6230010;28;19923;-70
2023/06/29 07:00:28;;;;;;;;;;;;;;;43.26;12.71;96502.53;6247307;28;19974;-69
2023/06/29 07:03:30;;;;;;;;;;;;;;;40.91;13.86;96496.72;6247077;28;19921;-70
2023/06/29 07:06:33;;;;;;;;;;;;;;;39.79;14.79;96492.94;6247496;28;19929;-71
2023/06/29 07:09:37;;;;;;;;;;;;;;;43.11;12.70;96494.59;6247290;28;19924;-70
2023/06/29 07:12:40;;;;;;;;;;;;;;;45.18;11.09;96502.69;6247315;28;19920;-70
2023/06/29 07:15:45;;;;;;;;;;;;;;;44.38;11.69;96497.59;6246505;28;20066;-69
2023/06/29 07:19:11;;;;;;;;;;;;;;;41.63;13.53;96492.59;6246829;28;20294;-69
2023/06/29 07:22:14;;;;;;;;;;;;;;;38.96;14.41;96481.22;6236764;28;19923;-70
2023/06/29 07:25:17;;;;;;;;;;;;;;;36.96;16.33;96476.81;6246236;28;19920;-72
2023/06/29 07:28:23;;;;;;;;;;;;;;;35.65;17.08;96460.88;6246567;28;19925;-70
2023/06/29 07:31:27;;;;;;;;;;;;;;;35.30;17.64;96465.09;6246470;28;19927;-71
2023/06/29 07:34:31;;;;;;;;;;;;;;;39.68;14.74;96471.00;6246421;28;20023;-71
2023/06/29 07:37:34;;;;;;;;;;;;;;;44.23;12.24;96492.53;6246359;28;19921;-70
2023/06/29 07:40:38;;;;;;;;;;;;;;;44.98;11.35;96482.81;6245768;28;20437;-71
2023/06/29 07:43:46;;;;;;;;;;;;;;;42.64;12.52;96479.53;6228673;28;20054;-71
2023/06/29 07:46:51;;;;;;;;;;;;;;;40.47;14.04;96486.97;6246285;28;19921;-70
2023/06/29 07:50:01;;;;;;;;;;;;;;;39.17;14.28;96477.09;6245939;28;19921;-72
2023/06/29 07:53:04;;;;;;;;;;;;;;;37.60;15.43;96469.00;6246190;28;19928;-70
2023/06/29 07:56:05;;;;;;;;;;;;;;;36.83;15.92;96469.16;6245702;28;19921;-71
2023/06/29 07:59:11;;;;;;;;;;;;;;;36.25;16.36;96458.50;6245355;28;20313;-70
2023/06/29 08:02:12;;;;;;;;;;;;;;;35.79;16.24;96454.88;6245525;28;20421;-72
2023/06/29 08:05:13;;;;;;;;;;;;;;;34.91;17.17;96450.13;6245589;28;19928;-70
2023/06/29 08:08:14;;;;;;;;;;;;;;;34.53;17.28;96454.75;6227899;28;20075;-70
2023/06/29 08:11:21;;;;;;;;;;;;;;;35.74;16.35;96455.69;6245758;28;19917;-70
2023/06/29 08:14:22;;;;;;;;;;;;;;;40.33;13.59;96475.88;6245349;28;20015;-71
2023/06/29 08:17:25;;;;;;;;;;;;;;;44.79;11.36;96490.72;6245452;28;19916;-70
2023/06/29 08:20:29;;;;;;;;;;;;;;;47.56;9.73;96492.59;6245656;28;19925;-70
2023/06/29 08:23:33;;;;;;;;;;;;;;;49.38;9.06;96480.34;6244826;28;19936;-70
2023/06/29 08:26:35;;;;;;;;;;;;;;;51.94;8.42;96503.88;6243950;28;20303;-70
2023/06/29 08:29:41;;;;;;;;;;;;;;;53.87;6.30;96506.03;6244791;28;20283;-70
2023/06/29 08:36:53;;;;;;;;;;;;;;;55.10;7.68;96509.03;6237309;28;19928;-71
2023/06/29 08:39:58;;;;;;;;;;;;;;;55.84;6.58;96508.66;6242132;28;19921;-70
2023/06/29 08:43:02;;;;;;;;;;;;;;;55.43;7.44;96509.88;6245055;28;20023;-70
2023/06/29 08:46:06;;;;;;;;;;;;;;;55.56;7.63;96499.78;6245213;28;19921;-70
2023/06/29 08:49:15;;;;;;;;;;;;;;;55.65;7.56;96492.97;6245174;28;19924;-70
2023/06/29 08:52:45;;;;;;;;;;;;;;;55.71;7.11;96496.97;6245140;28;19921;-70
2023/06/29 08:56:06;;;;;;;;;;;;;;;54.62;6.31;96489.53;6229449;28;20026;-69
2023/06/29 08:59:14;;;;;;;;;;;;;;;54.09;6.56;96484.47;6245178;28;19924;-70
2023/06/29 09:02:16;;;;;;;;;;;;;;;55.09;6.26;96495.31;6244207;28;19921;-70
2023/06/29 09:05:27;;;;;;;;;;;;;;;55.29;6.56;96492.94;6245030;28;20027;-70
2023/06/29 09:08:37;;;;;;;;;;;;;;;54.50;6.69;96478.63;6244999;28;19921;-70
2023/06/29 09:11:41;;;;;;;;;;;;;;;53.82;6.23;96470.66;6248197;28;20382;-69
2023/06/29 09:14:46;;;;;;;;;;;;;;;53.38;6.94;96479.94;6249732;28;20414;-70
2023/06/29 09:17:53;;;;;;;;;;;;;;;52.41;5.93;96483.72;6248990;28;20703;-70
2023/06/29 09:21:00;;;;;;;;;;;;;;;49.57;7.03;96464.78;6249520;28;20314;-69
2023/06/29 09:24:07;;;;;;;;;;;;;;;49.54;7.33;96448.75;6249423;28;19944;-69
2023/06/29 09:27:11;;;;;;;;;;;;;;;51.01;6.76;96452.69;6249472;28;19928;-69
2023/06/29 09:30:18;;;;;;;;;;;;;;;51.76;6.27;96445.53;6249572;28;19927;-69
2023/06/29 09:33:24;;;;;;;;;;;;;;;51.39;6.20;96454.56;6231428;28;19944;-69
2023/06/29 09:36:29;;;;;;;;;;;;;;;49.38;7.22;96449.59;6248440;28;19948;-69
2023/06/29 09:39:31;;;;;;;;;;;;;;;47.66;7.65;96436.38;6230925;28;19920;-69
2023/06/29 09:42:37;;;;;;;;;;;;;;;45.39;8.48;96431.38;6249383;28;19928;-68
2023/06/29 09:45:42;;;;;;;;;;;;;;;44.78;9.22;96428.00;6248735;28;19921;-70
2023/06/29 09:48:46;;;;;;;;;;;;;;;46.28;8.34;96422.91;6248447;28;19927;-69
2023/06/29 09:52:01;;;;;;;;;;;;;;;46.41;7.98;96442.44;6230682;28;19921;-70
2023/06/29 09:55:04;;;;;;;;;;;;;;;44.59;8.78;96420.88;6248852;28;20035;-69
2023/06/29 09:58:09;;;;;;;;;;;;;;;43.62;9.54;96415.63;6248810;28;20306;-70
2023/06/29 10:01:15;;;;;;;;;;;;;;;44.28;9.06;96414.72;6248864;28;20397;-69
2023/06/29 10:04:16;;;;;;;;;;;;;;;45.75;8.66;96421.69;6248203;28;19943;-69
2023/06/29 10:07:22;;;;;;;;;;;;;;;46.13;8.49;96412.41;6248427;28;19990;-70
2023/06/29 10:10:27;;;;;;;;;;;;;;;45.30;8.89;96427.84;6248565;28;20332;-70
2023/06/29 10:13:31;;;;;;;;;;;;;;;43.52;9.62;96406.81;6248318;28;19927;-70
2023/06/29 10:16:36;;;;;;;;;;;;;;;42.57;10.23;96397.78;6248478;28;20019;-69
2023/06/29 10:19:41;;;;;;;;;;;;;;;42.68;10.36;96394.75;6230566;28;19963;-69
2023/06/29 10:22:45;;;;;;;;;;;;;;;41.57;10.79;96395.22;6229792;28;19921;-69
2023/06/29 10:25:48;;;;;;;;;;;;;;;40.09;11.76;96389.72;6248031;28;20074;-69
2023/06/29 10:28:51;;;;;;;;;;;;;;;39.22;12.07;96383.50;6248053;28;19972;-70
2023/06/29 10:31:56;;;;;;;;;;;;;;;38.69;12.50;96378.03;6248457;28;19987;-69
2023/06/29 10:35:00;;;;;;;;;;;;;;;38.59;13.04;96389.16;6230498;28;19921;-70
2023/06/29 10:38:12;;;;;;;;;;;;;;;37.80;13.27;96383.75;6247677;28;19925;-69
2023/06/29 10:41:27;;;;;;;;;;;;;;;37.29;14.04;96367.56;6247489;28;20011;-70
2023/06/29 10:44:34;;;;;;;;;;;;;;;38.00;13.35;96381.97;6247500;28;19921;-69
2023/06/29 10:47:39;;;;;;;;;;;;;;;38.11;13.49;96383.53;6247572;28;19927;-69
2023/06/29 10:50:43;;;;;;;;;;;;;;;37.45;13.53;96382.84;6246929;28;19974;-69
2023/06/29 10:53:48;;;;;;;;;;;;;;;36.89;14.15;96379.50;6229584;28;20454;-70
2023/06/29 10:56:57;;;;;;;;;;;;;;;36.72;14.44;96386.16;6247491;28;19939;-69
2023/06/29 11:00:02;;;;;;;;;;;;;;;36.75;14.45;96382.03;6247525;28;19982;-70
2023/06/29 11:03:08;;;;;;;;;;;;;;;36.59;14.77;96379.31;6229916;28;19917;-69
2023/06/29 11:06:11;;;;;;;;;;;;;;;36.88;14.54;96378.69;6247235;28;19928;-70
2023/06/29 11:09:15;;;;;;;;;;;;;;;37.57;13.92;96359.72;6246989;28;19967;-70
2023/06/29 11:12:18;;;;;;;;;;;;;;;38.64;13.56;96364.34;6247144;28;20012;-72
2023/06/29 11:15:22;;;;;;;;;;;;;;;38.89;13.40;96360.50;6247033;28;20019;-74
2023/06/29 11:18:29;;;;;;;;;;;;;;;39.46;12.95;96368.88;6246913;28;19927;-69
2023/06/29 11:21:32;;;;;;;;;;;;;;;39.54;12.61;96359.94;6246322;28;19994;-70
2023/06/29 11:24:36;;;;;;;;;;;;;;;38.85;12.90;96357.50;6246548;28;19927;-70
2023/06/29 11:27:43;;;;;;;;;;;;;;;38.52;13.42;96355.69;6246791;28;19920;-70
2023/06/29 11:30:49;;;;;;;;;;;;;;;37.94;13.86;96351.81;6246528;28;20467;-70
2023/06/29 11:33:51;;;;;;;;;;;;;;;37.44;14.46;96347.44;6246399;28;19920;-69
2023/06/29 11:36:55;;;;;;;;;;;;;;;37.24;14.50;96353.88;6212418;28;19921;-70
2023/06/29 11:39:58;;;;;;;;;;;;;;;36.81;14.60;96350.75;6246558;28;19924;-69
2023/06/29 11:43:03;;;;;;;;;;;;;;;35.73;15.50;96342.66;6229061;28;19927;-69
2023/06/29 11:46:06;;;;;;;;;;;;;;;34.71;16.44;96339.59;6246195;28;20294;-69
2023/06/29 11:49:11;;;;;;;;;;;;;;;34.62;16.41;96328.34;6246368;28;20457;-69
2023/06/29 11:52:14;;;;;;;;;;;;;;;34.85;16.53;96331.72;6246045;28;19920;-69
2023/06/29 11:55:17;;;;;;;;;;;;;;;34.48;16.63;96323.56;6245881;28;19966;-70
2023/06/29 11:58:21;;;;;;;;;;;;;;;33.72;17.17;96335.59;6228671;28;20023;-70
2023/06/29 12:01:24;;;;;;;;;;;;;;;33.59;17.17;96327.84;6245951;28;20003;-69
2023/06/29 12:04:28;;;;;;;;;;;;;;;33.81;16.91;96322.31;6245504;28;19921;-69
2023/06/29 12:07:41;;;;;;;;;;;;;;;33.62;17.10;96319.13;6245837;28;19921;-70
2023/06/29 12:10:44;;;;;;;;;;;;;;;34.04;16.61;96332.03;6245609;28;20302;-70
2023/06/29 12:13:49;;;;;;;;;;;;;;;34.41;16.51;96330.09;6245721;28;20019;-69
2023/06/29 12:16:54;;;;;;;;;;;;;;;34.08;16.72;96323.06;6245885;28;20019;-70
2023/06/29 12:19:57;;;;;;;;;;;;;;;33.91;16.69;96325.91;6245385;28;19921;-69
2023/06/29 12:23:02;;;;;;;;;;;;;;;33.65;17.16;96315.88;6245424;28;20412;-69
2023/06/29 12:26:04;;;;;;;;;;;;;;;33.58;17.39;96318.03;6245543;28;19928;-70
2023/06/29 12:29:09;;;;;;;;;;;;;;;33.78;17.34;96323.66;6245137;28;20010;-69
2023/06/29 12:32:12;;;;;;;;;;;;;;;33.76;17.19;96337.53;6244907;28;19921;-69
2023/06/29 12:35:16;;;;;;;;;;;;;;;33.43;17.47;96327.69;6244763;28;19957;-69
2023/06/29 12:38:20;;;;;;;;;;;;;;;33.30;17.33;96322.63;6244684;28;19921;-70
2023/06/29 12:41:24;;;;;;;;;;;;;;;32.81;18.06;96326.16;6244897;28;20007;-70
2023/06/29 12:44:27;;;;;;;;;;;;;;;32.42;17.86;96312.56;6244569;28;20377;-70
2023/06/29 12:47:30;;;;;;;;;;;;;;;32.59;17.84;96311.72;6244704;28;19920;-70
2023/06/29 12:50:33;;;;;;;;;;;;;;;32.83;18.18;96312.28;6244656;28;20302;-69
2023/06/29 12:53:38;;;;;;;;;;;;;;;32.98;17.76;96320.63;6227394;28;20382;-71
2023/06/29 12:56:41;;;;;;;;;;;;;;;33.16;17.56;96321.41;6244799;28;20107;-71
2023/06/29 12:59:44;;;;;;;;;;;;;;;32.97;18.11;96324.41;6244833;28;20446;-70
2023/06/29 13:02:48;;;;;;;;;;;;;;;32.28;18.46;96315.91;6244740;28;20015;-69
2023/06/29 13:05:52;;;;;;;;;;;;;;;31.63;19.47;96320.03;6244866;28;19921;-70
2023/06/29 13:08:55;;;;;;;;;;;;;;;31.07;19.77;96317.09;6244783;28;19919;-70
2023/06/29 13:12:01;;;;;;;;;;;;;;;30.77;20.21;96318.16;6245026;28;20011;-71
2023/06/29 13:15:04;;;;;;;;;;;;;;;30.87;19.73;96318.34;6227256;28;19928;-71
2023/06/29 13:18:07;;;;;;;;;;;;;;;30.74;19.81;96324.03;6244589;28;20011;-71
2023/06/29 13:21:11;;;;;;;;;;;;;;;30.65;20.36;96309.19;6244841;28;19921;-72
2023/06/29 13:24:15;;;;;;;;;;;;;;;30.55;20.75;96314.44;6244479;28;19921;-70
2023/06/29 13:27:18;;;;;;;;;;;;;;;30.29;21.02;96311.16;6226915;28;19924;-71
2023/06/29 13:30:23;;;;;;;;;;;;;;;30.25;20.92;96315.41;6244341;28;19924;-70
2023/06/29 13:33:26;;;;;;;;;;;;;;;30.36;21.11;96311.84;6226818;28;20310;-70
2023/06/29 13:36:30;;;;;;;;;;;;;;;30.19;21.07;96313.59;6244184;28;19920;-71
2023/06/29 13:39:37;;;;;;;;;;;;;;;29.88;21.44;96314.78;6226542;28;19928;-72
2023/06/29 13:42:47;;;;;;;;;;;;;;;29.48;21.54;96315.44;6227491;28;19928;-72
2023/06/29 13:45:50;;;;;;;;;;;;;;;29.20;22.13;96307.94;6244255;28;19920;-71
2023/06/29 13:48:55;;;;;;;;;;;;;;;29.16;22.31;96318.41;6244200;28;20302;-71
2023/06/29 13:51:59;;;;;;;;;;;;;;;28.99;22.51;96318.19;6244703;28;19921;-70
2023/06/29 13:55:03;;;;;;;;;;;;;;;28.98;22.62;96321.13;6244319;28;20011;-71
2023/06/29 13:58:06;;;;;;;;;;;;;;;29.02;22.92;96314.19;6246701;28;20019;-72
2023/06/29 14:01:09;;;;;;;;;;;;;;;28.99;22.79;96317.38;6230901;28;20004;-70
2023/06/29 14:04:13;;;;;;;;;;;;;;;29.16;22.69;96321.13;6231078;28;20014;-71
2023/06/29 14:07:21;;;;;;;;;;;;;;;29.39;22.82;96322.25;6248464;28;19921;-72
2023/06/29 14:10:24;;;;;;;;;;;;;;;29.69;22.63;96323.00;6229058;28;19921;-72
2023/06/29 14:13:28;;;;;;;;;;;;;;;29.81;22.33;96325.78;6246379;28;20456;-71
2023/06/29 14:16:31;;;;;;;;;;;;;;;29.77;22.32;96319.16;6246928;28;20398;-71
2023/06/29 14:19:34;;;;;;;;;;;;;;;29.72;22.67;96316.31;6230481;28;19921;-71
2023/06/29 14:22:37;;;;;;;;;;;;;;;29.68;22.73;96305.09;6230525;28;20015;-72
2023/06/29 14:25:40;;;;;;;;;;;;;;;29.50;22.73;96313.31;6247989;28;20007;-71
2023/06/29 14:28:43;;;;;;;;;;;;;;;29.23;22.81;96318.31;6247836;28;19921;-71
2023/06/29 14:31:47;;;;;;;;;;;;;;;29.00;23.43;96309.00;6213950;28;20314;-72
2023/06/29 14:34:51;;;;;;;;;;;;;;;28.68;23.51;96312.97;6247757;28;20016;-70
2023/06/29 14:37:55;;;;;;;;;;;;;;;28.47;23.55;96317.78;6247689;28;19921;-70
2023/06/29 14:40:58;;;;;;;;;;;;;;;28.46;23.91;96307.22;6247950;28;20020;-70
2023/06/29 14:44:03;;;;;;;;;;;;;;;28.55;23.83;96309.38;6230280;28;19928;-71
2023/06/29 14:47:07;;;;;;;;;;;;;;;28.67;23.51;96303.19;6247484;28;20455;-71
2023/06/29 14:50:10;;;;;;;;;;;;;;;28.51;23.53;96302.78;6247354;28;20378;-71
2023/06/29 14:53:15;;;;;;;;;;;;;;;28.27;24.00;96298.22;6229761;28;19927;-71
2023/06/29 14:56:23;;;;;;;;;;;;;;;28.02;24.40;96291.00;6247123;28;19921;-70
2023/06/29 14:59:29;;;;;;;;;;;;;;;27.87;24.29;96301.34;6247188;28;19921;-71
2023/06/29 15:02:33;;;;;;;;;;;;;;;27.86;24.47;96308.63;6247492;28;20015;-73
2023/06/29 15:05:36;;;;;;;;;;;;;;;27.95;24.60;96311.88;6247233;28;20011;-71
2023/06/29 15:08:40;;;;;;;;;;;;;;;27.89;24.49;96312.78;6247259;28;19959;-71
2023/06/29 15:11:43;;;;;;;;;;;;;;;27.72;24.20;96318.69;6247064;28;19920;-70
2023/06/29 15:14:47;;;;;;;;;;;;;;;27.62;24.74;96314.84;6228854;28;20066;-70
2023/06/29 15:17:50;;;;;;;;;;;;;;;27.44;25.13;96321.00;6246702;28;20011;-71
2023/06/29 15:20:54;;;;;;;;;;;;;;;27.28;25.54;96319.66;6229345;28;20398;-71
2023/06/29 15:23:57;;;;;;;;;;;;;;;27.08;25.85;96323.28;6246757;28;19981;-70
2023/06/29 15:27:00;;;;;;;;;;;;;;;26.95;26.13;96320.69;6246832;28;19921;-70
2023/06/29 15:30:03;;;;;;;;;;;;;;;26.81;26.69;96317.22;6246599;28;20010;-71
2023/06/29 15:33:08;;;;;;;;;;;;;;;26.73;26.67;96322.84;6246461;28;19983;-71
2023/06/29 15:36:11;;;;;;;;;;;;;;;26.64;26.71;96326.84;6246358;28;20450;-70
2023/06/29 15:39:16;;;;;;;;;;;;;;;26.52;26.85;96318.56;6246082;28;19921;-70
2023/06/29 15:42:19;;;;;;;;;;;;;;;26.39;26.88;96324.81;6246419;28;20082;-70
2023/06/29 15:45:21;;;;;;;;;;;;;;;26.24;27.02;96323.41;6228640;28;20079;-71
2023/06/29 15:48:25;;;;;;;;;;;;;;;26.07;27.61;96326.56;6246039;28;19927;-71
2023/06/29 15:51:31;;;;;;;;;;;;;;;25.83;27.86;96330.72;6228566;28;20031;-71
2023/06/29 15:54:36;;;;;;;;;;;;;;;25.62;27.88;96322.81;6246163;28;19928;-70
2023/06/29 15:57:41;;;;;;;;;;;;;;;25.52;28.86;96328.63;6246050;28;19921;-70
2023/06/29 16:00:46;;;;;;;;;;;;;;;25.42;28.55;96334.44;6212681;28;19951;-70
2023/06/29 16:03:53;;;;;;;;;;;;;;;25.38;29.21;96330.47;6228883;28;20078;-71